sensor_id;sensor_type;location;lat;lon;timestamp;P1;durP1;ratioP1;P2;durP2;ratioP2
33579;SDS011;19909;43.644;-79.438;2023-03-01T00:01:05;3.17;;;2.72;;
33579;SDS011;19909;43.644;-79.438;2023-03-01T00:03:33;2.53;;;2.33;;
33579;SDS011;19909;43.644;-79.438;2023-03-01T00:06:00;2.88;;;2.40;;
33579;SDS011;19909;43.644;-79.438;2023-03-01T00:08:27;3.55;;;2.47;;
33579;SDS011;19909;43.644;-79.438;2023-03-01T00:11:02;2.38;;;2.17;;
33579;SDS011;19909;43.644;-79.438;2023-03-01T00:13:29;2.55;;;2.28;;
33579;SDS011;19909;43.644;-79.438;2023-03-01T00:15:56;2.53;;;2.15;;
33579;SDS011;19909;43.644;-79.438;2023-03-01T00:18:22;2.25;;;2.05;;
33579;SDS011;19909;43.644;-79.438;2023-03-01T00:20:49;3.63;;;2.95;;
33579;SDS011;19909;43.644;-79.438;2023-03-01T00:23:17;2.08;;;1.83;;
33579;SDS011;19909;43.644;-79.438;2023-03-01T00:25:43;1.85;;;1.70;;
33579;SDS011;19909;43.644;-79.438;2023-03-01T00:28:09;3.38;;;1.90;;
33579;SDS011;19909;43.644;-79.438;2023-03-01T00:30:35;2.90;;;2.30;;
33579;SDS011;19909;43.644;-79.438;2023-03-01T00:33:02;2.85;;;1.98;;
33579;SDS011;19909;43.644;-79.438;2023-03-01T00:35:28;2.03;;;1.80;;
33579;SDS011;19909;43.644;-79.438;2023-03-01T00:37:55;1.67;;;1.58;;
33579;SDS011;19909;43.644;-79.438;2023-03-01T00:40:23;1.63;;;1.30;;
33579;SDS011;19909;43.644;-79.438;2023-03-01T00:42:50;1.80;;;1.60;;
33579;SDS011;19909;43.644;-79.438;2023-03-01T00:45:16;1.75;;;1.50;;
33579;SDS011;19909;43.644;-79.438;2023-03-01T00:47:43;1.88;;;1.67;;
33579;SDS011;19909;43.644;-79.438;2023-03-01T00:50:09;1.35;;;1.25;;
33579;SDS011;19909;43.644;-79.438;2023-03-01T00:52:36;1.98;;;1.42;;
33579;SDS011;19909;43.644;-79.438;2023-03-01T00:55:03;1.52;;;1.42;;
33579;SDS011;19909;43.644;-79.438;2023-03-01T00:57:30;1.30;;;1.08;;
33579;SDS011;19909;43.644;-79.438;2023-03-01T00:59:56;1.42;;;1.23;;
33579;SDS011;19909;43.644;-79.438;2023-03-01T01:02:22;1.30;;;1.20;;
33579;SDS011;19909;43.644;-79.438;2023-03-01T01:04:49;1.42;;;1.20;;
33579;SDS011;19909;43.644;-79.438;2023-03-01T01:07:16;1.33;;;1.00;;
33579;SDS011;19909;43.644;-79.438;2023-03-01T01:09:42;1.10;;;1.00;;
33579;SDS011;19909;43.644;-79.438;2023-03-01T01:12:09;1.58;;;1.30;;
33579;SDS011;19909;43.644;-79.438;2023-03-01T01:14:35;1.13;;;1.00;;
33579;SDS011;19909;43.644;-79.438;2023-03-01T01:17:01;1.90;;;1.13;;
33579;SDS011;19909;43.644;-79.438;2023-03-01T01:19:27;1.10;;;0.90;;
33579;SDS011;19909;43.644;-79.438;2023-03-01T01:21:54;1.52;;;0.93;;
33579;SDS011;19909;43.644;-79.438;2023-03-01T01:24:20;1.05;;;0.80;;
33579;SDS011;19909;43.644;-79.438;2023-03-01T01:26:46;1.35;;;1.15;;
33579;SDS011;19909;43.644;-79.438;2023-03-01T01:29:12;1.17;;;0.98;;
33579;SDS011;19909;43.644;-79.438;2023-03-01T01:31:39;1.60;;;1.10;;
33579;SDS011;19909;43.644;-79.438;2023-03-01T01:34:08;1.30;;;1.10;;
33579;SDS011;19909;43.644;-79.438;2023-03-01T01:36:42;1.00;;;0.85;;
33579;SDS011;19909;43.644;-79.438;2023-03-01T01:39:09;0.82;;;0.65;;
33579;SDS011;19909;43.644;-79.438;2023-03-01T01:41:39;1.30;;;0.90;;
33579;SDS011;19909;43.644;-79.438;2023-03-01T01:44:23;1.20;;;0.90;;
33579;SDS011;19909;43.644;-79.438;2023-03-01T01:49:38;1.45;;;1.00;;
33579;SDS011;19909;43.644;-79.438;2023-03-01T01:52:13;0.88;;;0.60;;
33579;SDS011;19909;43.644;-79.438;2023-03-01T01:57:12;1.05;;;0.85;;
33579;SDS011;19909;43.644;-79.438;2023-03-01T01:59:43;1.13;;;0.90;;
33579;SDS011;19909;43.644;-79.438;2023-03-01T02:02:14;1.00;;;0.80;;
33579;SDS011;19909;43.644;-79.438;2023-03-01T02:04:40;0.85;;;0.60;;
33579;SDS011;19909;43.644;-79.438;2023-03-01T02:07:14;1.65;;;0.70;;
33579;SDS011;19909;43.644;-79.438;2023-03-01T02:09:45;1.73;;;1.13;;
33579;SDS011;19909;43.644;-79.438;2023-03-01T02:12:17;0.88;;;0.80;;
33579;SDS011;19909;43.644;-79.438;2023-03-01T02:14:49;0.88;;;0.68;;
33579;SDS011;19909;43.644;-79.438;2023-03-01T02:17:16;0.80;;;0.60;;
33579;SDS011;19909;43.644;-79.438;2023-03-01T02:19:47;1.45;;;0.95;;
33579;SDS011;19909;43.644;-79.438;2023-03-01T02:24:51;0.98;;;0.80;;
33579;SDS011;19909;43.644;-79.438;2023-03-01T02:27:40;1.10;;;0.70;;
33579;SDS011;19909;43.644;-79.438;2023-03-01T02:30:15;1.55;;;0.70;;
33579;SDS011;19909;43.644;-79.438;2023-03-01T02:32:42;1.00;;;0.50;;
33579;SDS011;19909;43.644;-79.438;2023-03-01T02:35:09;1.45;;;0.90;;
33579;SDS011;19909;43.644;-79.438;2023-03-01T02:37:38;1.45;;;0.77;;
33579;SDS011;19909;43.644;-79.438;2023-03-01T02:40:07;1.73;;;0.82;;
33579;SDS011;19909;43.644;-79.438;2023-03-01T02:42:47;1.55;;;0.85;;
33579;SDS011;19909;43.644;-79.438;2023-03-01T02:45:17;0.93;;;0.82;;
33579;SDS011;19909;43.644;-79.438;2023-03-01T02:47:43;1.27;;;0.80;;
33579;SDS011;19909;43.644;-79.438;2023-03-01T02:50:15;1.25;;;0.90;;
33579;SDS011;19909;43.644;-79.438;2023-03-01T02:53:01;1.38;;;0.60;;
33579;SDS011;19909;43.644;-79.438;2023-03-01T02:55:38;1.60;;;0.93;;
33579;SDS011;19909;43.644;-79.438;2023-03-01T02:58:04;2.55;;;0.80;;
33579;SDS011;19909;43.644;-79.438;2023-03-01T03:00:40;1.33;;;0.80;;
33579;SDS011;19909;43.644;-79.438;2023-03-01T03:03:12;1.15;;;0.80;;
33579;SDS011;19909;43.644;-79.438;2023-03-01T03:05:40;0.80;;;0.60;;
33579;SDS011;19909;43.644;-79.438;2023-03-01T03:08:07;0.88;;;0.50;;
33579;SDS011;19909;43.644;-79.438;2023-03-01T03:10:34;1.38;;;0.90;;
33579;SDS011;19909;43.644;-79.438;2023-03-01T03:13:07;0.95;;;0.55;;
33579;SDS011;19909;43.644;-79.438;2023-03-01T03:15:38;1.02;;;0.65;;
33579;SDS011;19909;43.644;-79.438;2023-03-01T03:18:08;1.67;;;0.98;;
33579;SDS011;19909;43.644;-79.438;2023-03-01T03:20:36;1.50;;;0.85;;
33579;SDS011;19909;43.644;-79.438;2023-03-01T03:23:04;0.90;;;0.70;;
33579;SDS011;19909;43.644;-79.438;2023-03-01T03:25:30;1.58;;;0.50;;
33579;SDS011;19909;43.644;-79.438;2023-03-01T03:27:57;0.98;;;0.60;;
33579;SDS011;19909;43.644;-79.438;2023-03-01T03:30:30;1.17;;;0.82;;
33579;SDS011;19909;43.644;-79.438;2023-03-01T03:32:57;0.90;;;0.60;;
33579;SDS011;19909;43.644;-79.438;2023-03-01T03:35:25;1.40;;;0.93;;
33579;SDS011;19909;43.644;-79.438;2023-03-01T03:40:35;0.80;;;0.50;;
33579;SDS011;19909;43.644;-79.438;2023-03-01T03:43:03;0.80;;;0.57;;
33579;SDS011;19909;43.644;-79.438;2023-03-01T03:45:30;0.95;;;0.50;;
33579;SDS011;19909;43.644;-79.438;2023-03-01T03:47:58;0.60;;;0.50;;
33579;SDS011;19909;43.644;-79.438;2023-03-01T03:50:25;1.38;;;0.80;;
33579;SDS011;19909;43.644;-79.438;2023-03-01T03:52:52;0.70;;;0.55;;
33579;SDS011;19909;43.644;-79.438;2023-03-01T03:55:18;0.70;;;0.50;;
33579;SDS011;19909;43.644;-79.438;2023-03-01T03:57:46;1.10;;;0.60;;
33579;SDS011;19909;43.644;-79.438;2023-03-01T04:00:22;1.00;;;0.65;;
33579;SDS011;19909;43.644;-79.438;2023-03-01T04:02:49;1.77;;;0.57;;
33579;SDS011;19909;43.644;-79.438;2023-03-01T04:05:16;0.95;;;0.52;;
33579;SDS011;19909;43.644;-79.438;2023-03-01T04:07:44;1.00;;;0.45;;
33579;SDS011;19909;43.644;-79.438;2023-03-01T04:10:12;0.60;;;0.57;;
33579;SDS011;19909;43.644;-79.438;2023-03-01T04:12:41;1.33;;;0.70;;
33579;SDS011;19909;43.644;-79.438;2023-03-01T04:15:08;1.15;;;0.80;;
33579;SDS011;19909;43.644;-79.438;2023-03-01T04:17:39;2.28;;;0.85;;
33579;SDS011;19909;43.644;-79.438;2023-03-01T04:20:07;1.10;;;0.70;;
33579;SDS011;19909;43.644;-79.438;2023-03-01T04:22:36;0.85;;;0.50;;
33579;SDS011;19909;43.644;-79.438;2023-03-01T04:25:03;1.40;;;0.60;;
33579;SDS011;19909;43.644;-79.438;2023-03-01T04:27:34;1.05;;;0.80;;
33579;SDS011;19909;43.644;-79.438;2023-03-01T04:30:02;0.95;;;0.60;;
33579;SDS011;19909;43.644;-79.438;2023-03-01T04:32:29;2.80;;;0.50;;
33579;SDS011;19909;43.644;-79.438;2023-03-01T04:34:55;0.98;;;0.68;;
33579;SDS011;19909;43.644;-79.438;2023-03-01T04:37:21;1.48;;;0.85;;
33579;SDS011;19909;43.644;-79.438;2023-03-01T04:39:47;1.08;;;0.60;;
33579;SDS011;19909;43.644;-79.438;2023-03-01T04:42:14;1.15;;;0.70;;
33579;SDS011;19909;43.644;-79.438;2023-03-01T04:44:42;0.77;;;0.47;;
33579;SDS011;19909;43.644;-79.438;2023-03-01T04:47:09;0.80;;;0.50;;
33579;SDS011;19909;43.644;-79.438;2023-03-01T04:49:35;1.33;;;0.57;;
33579;SDS011;19909;43.644;-79.438;2023-03-01T04:52:01;1.23;;;0.73;;
33579;SDS011;19909;43.644;-79.438;2023-03-01T04:54:29;0.70;;;0.57;;
33579;SDS011;19909;43.644;-79.438;2023-03-01T04:56:58;0.70;;;0.60;;
33579;SDS011;19909;43.644;-79.438;2023-03-01T04:59:24;0.93;;;0.60;;
33579;SDS011;19909;43.644;-79.438;2023-03-01T05:01:51;0.55;;;0.45;;
33579;SDS011;19909;43.644;-79.438;2023-03-01T05:04:21;1.33;;;0.95;;
33579;SDS011;19909;43.644;-79.438;2023-03-01T05:06:48;1.45;;;0.82;;
33579;SDS011;19909;43.644;-79.438;2023-03-01T05:09:14;1.50;;;0.90;;
33579;SDS011;19909;43.644;-79.438;2023-03-01T05:11:41;1.05;;;0.80;;
33579;SDS011;19909;43.644;-79.438;2023-03-01T05:14:08;1.52;;;0.60;;
33579;SDS011;19909;43.644;-79.438;2023-03-01T05:16:35;1.63;;;0.93;;
33579;SDS011;19909;43.644;-79.438;2023-03-01T05:19:02;2.38;;;0.60;;
33579;SDS011;19909;43.644;-79.438;2023-03-01T05:21:40;0.80;;;0.70;;
33579;SDS011;19909;43.644;-79.438;2023-03-01T05:24:26;1.13;;;0.60;;
33579;SDS011;19909;43.644;-79.438;2023-03-01T05:26:53;1.92;;;0.88;;
33579;SDS011;19909;43.644;-79.438;2023-03-01T05:29:20;2.33;;;0.98;;
33579;SDS011;19909;43.644;-79.438;2023-03-01T05:31:53;1.10;;;0.73;;
33579;SDS011;19909;43.644;-79.438;2023-03-01T05:34:25;1.45;;;0.80;;
33579;SDS011;19909;43.644;-79.438;2023-03-01T05:36:52;0.93;;;0.65;;
33579;SDS011;19909;43.644;-79.438;2023-03-01T05:39:19;1.30;;;0.68;;
33579;SDS011;19909;43.644;-79.438;2023-03-01T05:41:52;1.05;;;0.60;;
33579;SDS011;19909;43.644;-79.438;2023-03-01T05:44:20;1.38;;;0.80;;
33579;SDS011;19909;43.644;-79.438;2023-03-01T05:46:46;1.33;;;0.68;;
33579;SDS011;19909;43.644;-79.438;2023-03-01T05:49:13;1.52;;;0.80;;
33579;SDS011;19909;43.644;-79.438;2023-03-01T05:51:40;1.58;;;0.75;;
33579;SDS011;19909;43.644;-79.438;2023-03-01T05:54:08;1.00;;;0.70;;
33579;SDS011;19909;43.644;-79.438;2023-03-01T05:56:35;1.00;;;0.60;;
33579;SDS011;19909;43.644;-79.438;2023-03-01T05:59:02;0.88;;;0.47;;
33579;SDS011;19909;43.644;-79.438;2023-03-01T06:01:30;1.60;;;0.70;;
33579;SDS011;19909;43.644;-79.438;2023-03-01T06:04:00;1.13;;;0.75;;
33579;SDS011;19909;43.644;-79.438;2023-03-01T06:06:27;1.55;;;1.08;;
33579;SDS011;19909;43.644;-79.438;2023-03-01T06:08:54;0.40;;;0.40;;
33579;SDS011;19909;43.644;-79.438;2023-03-01T06:11:20;1.30;;;0.57;;
33579;SDS011;19909;43.644;-79.438;2023-03-01T06:13:47;0.90;;;0.60;;
33579;SDS011;19909;43.644;-79.438;2023-03-01T06:16:13;1.20;;;0.80;;
33579;SDS011;19909;43.644;-79.438;2023-03-01T06:18:40;0.98;;;0.60;;
33579;SDS011;19909;43.644;-79.438;2023-03-01T06:21:07;1.20;;;0.57;;
33579;SDS011;19909;43.644;-79.438;2023-03-01T06:23:34;0.93;;;0.70;;
33579;SDS011;19909;43.644;-79.438;2023-03-01T06:26:00;0.90;;;0.68;;
33579;SDS011;19909;43.644;-79.438;2023-03-01T06:28:30;0.90;;;0.50;;
33579;SDS011;19909;43.644;-79.438;2023-03-01T06:30:56;1.35;;;0.82;;
33579;SDS011;19909;43.644;-79.438;2023-03-01T06:33:22;1.05;;;0.60;;
33579;SDS011;19909;43.644;-79.438;2023-03-01T06:35:49;1.27;;;0.70;;
33579;SDS011;19909;43.644;-79.438;2023-03-01T06:38:16;1.17;;;0.65;;
33579;SDS011;19909;43.644;-79.438;2023-03-01T06:40:44;1.35;;;0.70;;
33579;SDS011;19909;43.644;-79.438;2023-03-01T06:43:16;0.80;;;0.60;;
33579;SDS011;19909;43.644;-79.438;2023-03-01T06:45:42;0.85;;;0.50;;
33579;SDS011;19909;43.644;-79.438;2023-03-01T06:48:09;1.13;;;0.68;;
33579;SDS011;19909;43.644;-79.438;2023-03-01T06:50:35;2.58;;;0.98;;
33579;SDS011;19909;43.644;-79.438;2023-03-01T06:53:02;1.20;;;0.70;;
33579;SDS011;19909;43.644;-79.438;2023-03-01T06:55:29;0.95;;;0.40;;
33579;SDS011;19909;43.644;-79.438;2023-03-01T06:57:56;0.80;;;0.60;;
33579;SDS011;19909;43.644;-79.438;2023-03-01T07:00:23;1.05;;;0.80;;
33579;SDS011;19909;43.644;-79.438;2023-03-01T07:02:50;1.17;;;0.55;;
33579;SDS011;19909;43.644;-79.438;2023-03-01T07:05:17;1.15;;;0.75;;
33579;SDS011;19909;43.644;-79.438;2023-03-01T07:07:43;2.40;;;0.90;;
33579;SDS011;19909;43.644;-79.438;2023-03-01T07:10:10;1.33;;;0.70;;
33579;SDS011;19909;43.644;-79.438;2023-03-01T07:12:36;0.80;;;0.57;;
33579;SDS011;19909;43.644;-79.438;2023-03-01T07:15:03;1.17;;;0.70;;
33579;SDS011;19909;43.644;-79.438;2023-03-01T07:17:30;1.02;;;0.65;;
33579;SDS011;19909;43.644;-79.438;2023-03-01T07:19:56;1.00;;;0.70;;
33579;SDS011;19909;43.644;-79.438;2023-03-01T07:22:22;0.90;;;0.60;;
33579;SDS011;19909;43.644;-79.438;2023-03-01T07:24:49;0.75;;;0.70;;
33579;SDS011;19909;43.644;-79.438;2023-03-01T07:27:15;0.68;;;0.45;;
33579;SDS011;19909;43.644;-79.438;2023-03-01T07:29:41;1.23;;;0.60;;
33579;SDS011;19909;43.644;-79.438;2023-03-01T07:32:07;1.20;;;0.52;;
33579;SDS011;19909;43.644;-79.438;2023-03-01T07:34:33;1.27;;;0.90;;
33579;SDS011;19909;43.644;-79.438;2023-03-01T07:36:59;0.80;;;0.50;;
33579;SDS011;19909;43.644;-79.438;2023-03-01T07:39:26;1.00;;;0.70;;
33579;SDS011;19909;43.644;-79.438;2023-03-01T07:41:52;1.33;;;0.70;;
33579;SDS011;19909;43.644;-79.438;2023-03-01T07:44:18;1.63;;;0.68;;
33579;SDS011;19909;43.644;-79.438;2023-03-01T07:46:45;1.15;;;0.80;;
33579;SDS011;19909;43.644;-79.438;2023-03-01T07:49:11;1.02;;;0.70;;
33579;SDS011;19909;43.644;-79.438;2023-03-01T07:51:38;1.00;;;0.80;;
33579;SDS011;19909;43.644;-79.438;2023-03-01T07:54:04;0.98;;;0.70;;
33579;SDS011;19909;43.644;-79.438;2023-03-01T07:56:30;0.90;;;0.60;;
33579;SDS011;19909;43.644;-79.438;2023-03-01T07:58:58;0.60;;;0.60;;
33579;SDS011;19909;43.644;-79.438;2023-03-01T08:01:25;1.33;;;0.70;;
33579;SDS011;19909;43.644;-79.438;2023-03-01T08:03:51;1.50;;;0.70;;
33579;SDS011;19909;43.644;-79.438;2023-03-01T08:06:17;0.90;;;0.70;;
33579;SDS011;19909;43.644;-79.438;2023-03-01T08:08:44;1.40;;;0.80;;
33579;SDS011;19909;43.644;-79.438;2023-03-01T08:11:11;1.35;;;0.70;;
33579;SDS011;19909;43.644;-79.438;2023-03-01T08:13:38;0.77;;;0.60;;
33579;SDS011;19909;43.644;-79.438;2023-03-01T08:16:10;1.20;;;0.80;;
33579;SDS011;19909;43.644;-79.438;2023-03-01T08:18:37;1.38;;;1.02;;
33579;SDS011;19909;43.644;-79.438;2023-03-01T08:21:04;1.13;;;0.85;;
33579;SDS011;19909;43.644;-79.438;2023-03-01T08:23:32;0.98;;;0.73;;
33579;SDS011;19909;43.644;-79.438;2023-03-01T08:26:05;0.70;;;0.70;;
33579;SDS011;19909;43.644;-79.438;2023-03-01T08:28:37;1.58;;;1.08;;
33579;SDS011;19909;43.644;-79.438;2023-03-01T08:31:13;1.20;;;0.70;;
33579;SDS011;19909;43.644;-79.438;2023-03-01T08:33:42;0.80;;;0.63;;
33579;SDS011;19909;43.644;-79.438;2023-03-01T08:36:09;0.98;;;0.85;;
33579;SDS011;19909;43.644;-79.438;2023-03-01T08:38:35;0.88;;;0.68;;
33579;SDS011;19909;43.644;-79.438;2023-03-01T08:41:02;1.17;;;0.80;;
33579;SDS011;19909;43.644;-79.438;2023-03-01T08:43:29;1.13;;;0.80;;
33579;SDS011;19909;43.644;-79.438;2023-03-01T08:45:55;2.38;;;1.10;;
33579;SDS011;19909;43.644;-79.438;2023-03-01T08:48:21;1.65;;;1.08;;
33579;SDS011;19909;43.644;-79.438;2023-03-01T08:50:47;1.65;;;0.90;;
33579;SDS011;19909;43.644;-79.438;2023-03-01T08:53:13;1.70;;;0.90;;
33579;SDS011;19909;43.644;-79.438;2023-03-01T08:55:40;2.42;;;0.68;;
33579;SDS011;19909;43.644;-79.438;2023-03-01T08:58:06;0.60;;;0.60;;
33579;SDS011;19909;43.644;-79.438;2023-03-01T09:00:32;1.08;;;0.90;;
33579;SDS011;19909;43.644;-79.438;2023-03-01T09:03:00;1.52;;;1.10;;
33579;SDS011;19909;43.644;-79.438;2023-03-01T09:05:26;1.25;;;0.90;;
33579;SDS011;19909;43.644;-79.438;2023-03-01T09:07:53;1.60;;;0.88;;
33579;SDS011;19909;43.644;-79.438;2023-03-01T09:10:19;1.73;;;0.98;;
33579;SDS011;19909;43.644;-79.438;2023-03-01T09:12:45;0.90;;;0.70;;
33579;SDS011;19909;43.644;-79.438;2023-03-01T09:15:11;1.60;;;0.93;;
33579;SDS011;19909;43.644;-79.438;2023-03-01T09:17:37;1.77;;;1.05;;
33579;SDS011;19909;43.644;-79.438;2023-03-01T09:20:03;1.50;;;1.02;;
33579;SDS011;19909;43.644;-79.438;2023-03-01T09:22:32;2.28;;;1.10;;
33579;SDS011;19909;43.644;-79.438;2023-03-01T09:25:00;1.08;;;0.98;;
33579;SDS011;19909;43.644;-79.438;2023-03-01T09:27:26;1.08;;;0.88;;
33579;SDS011;19909;43.644;-79.438;2023-03-01T09:29:52;1.00;;;0.90;;
33579;SDS011;19909;43.644;-79.438;2023-03-01T09:32:21;1.23;;;0.80;;
33579;SDS011;19909;43.644;-79.438;2023-03-01T09:34:47;1.58;;;1.05;;
33579;SDS011;19909;43.644;-79.438;2023-03-01T09:37:26;2.97;;;0.98;;
33579;SDS011;19909;43.644;-79.438;2023-03-01T09:39:52;1.15;;;0.90;;
33579;SDS011;19909;43.644;-79.438;2023-03-01T09:42:18;1.00;;;0.75;;
33579;SDS011;19909;43.644;-79.438;2023-03-01T09:47:45;1.23;;;0.80;;
33579;SDS011;19909;43.644;-79.438;2023-03-01T09:50:12;0.93;;;0.88;;
33579;SDS011;19909;43.644;-79.438;2023-03-01T09:52:43;2.10;;;0.90;;
33579;SDS011;19909;43.644;-79.438;2023-03-01T09:55:28;1.30;;;0.90;;
33579;SDS011;19909;43.644;-79.438;2023-03-01T09:58:25;1.50;;;0.85;;
33579;SDS011;19909;43.644;-79.438;2023-03-01T10:01:53;0.82;;;0.70;;
33579;SDS011;19909;43.644;-79.438;2023-03-01T10:04:12;1.20;;;0.60;;
33579;SDS011;19909;43.644;-79.438;2023-03-01T10:06:46;1.05;;;0.70;;
33579;SDS011;19909;43.644;-79.438;2023-03-01T10:09:40;1.27;;;0.70;;
33579;SDS011;19909;43.644;-79.438;2023-03-01T10:12:18;0.73;;;0.50;;
33579;SDS011;19909;43.644;-79.438;2023-03-01T10:17:39;0.80;;;0.60;;
33579;SDS011;19909;43.644;-79.438;2023-03-01T10:20:26;0.50;;;0.40;;
33579;SDS011;19909;43.644;-79.438;2023-03-01T10:23:02;0.77;;;0.60;;
33579;SDS011;19909;43.644;-79.438;2023-03-01T10:31:48;1.08;;;0.70;;
33579;SDS011;19909;43.644;-79.438;2023-03-01T10:36:43;1.02;;;0.50;;
33579;SDS011;19909;43.644;-79.438;2023-03-01T10:39:13;0.80;;;0.50;;
33579;SDS011;19909;43.644;-79.438;2023-03-01T10:41:59;1.15;;;0.50;;
33579;SDS011;19909;43.644;-79.438;2023-03-01T10:44:36;0.70;;;0.50;;
33579;SDS011;19909;43.644;-79.438;2023-03-01T10:47:04;1.05;;;0.52;;
33579;SDS011;19909;43.644;-79.438;2023-03-01T10:49:37;0.77;;;0.50;;
33579;SDS011;19909;43.644;-79.438;2023-03-01T10:52:11;0.95;;;0.73;;
33579;SDS011;19909;43.644;-79.438;2023-03-01T10:55:31;0.73;;;0.50;;
33579;SDS011;19909;43.644;-79.438;2023-03-01T10:57:50;0.68;;;0.50;;
33579;SDS011;19909;43.644;-79.438;2023-03-01T11:00:51;1.20;;;0.50;;
33579;SDS011;19909;43.644;-79.438;2023-03-01T11:03:38;0.38;;;0.30;;
33579;SDS011;19909;43.644;-79.438;2023-03-01T11:13:40;0.50;;;0.40;;
33579;SDS011;19909;43.644;-79.438;2023-03-01T11:16:22;0.95;;;0.40;;
33579;SDS011;19909;43.644;-79.438;2023-03-01T11:18:57;0.60;;;0.50;;
33579;SDS011;19909;43.644;-79.438;2023-03-01T11:21:26;0.70;;;0.50;;
33579;SDS011;19909;43.644;-79.438;2023-03-01T11:23:56;0.50;;;0.45;;
33579;SDS011;19909;43.644;-79.438;2023-03-01T11:26:26;1.48;;;0.52;;
33579;SDS011;19909;43.644;-79.438;2023-03-01T11:28:58;0.90;;;0.50;;
33579;SDS011;19909;43.644;-79.438;2023-03-01T11:31:38;0.88;;;0.75;;
33579;SDS011;19909;43.644;-79.438;2023-03-01T11:34:11;0.50;;;0.40;;
33579;SDS011;19909;43.644;-79.438;2023-03-01T11:36:49;0.82;;;0.70;;
33579;SDS011;19909;43.644;-79.438;2023-03-01T11:39:31;0.50;;;0.50;;
33579;SDS011;19909;43.644;-79.438;2023-03-01T11:42:15;0.75;;;0.57;;
33579;SDS011;19909;43.644;-79.438;2023-03-01T11:44:46;0.75;;;0.43;;
33579;SDS011;19909;43.644;-79.438;2023-03-01T11:47:28;0.73;;;0.60;;
33579;SDS011;19909;43.644;-79.438;2023-03-01T11:53:47;1.17;;;0.68;;
33579;SDS011;19909;43.644;-79.438;2023-03-01T11:56:55;0.80;;;0.55;;
33579;SDS011;19909;43.644;-79.438;2023-03-01T11:59:48;1.05;;;0.60;;
33579;SDS011;19909;43.644;-79.438;2023-03-01T12:10:29;0.40;;;0.40;;
33579;SDS011;19909;43.644;-79.438;2023-03-01T12:13:43;0.40;;;0.40;;
33579;SDS011;19909;43.644;-79.438;2023-03-01T12:16:23;1.10;;;0.70;;
33579;SDS011;19909;43.644;-79.438;2023-03-01T12:26:55;0.50;;;0.40;;
33579;SDS011;19909;43.644;-79.438;2023-03-01T12:29:42;1.25;;;0.70;;
33579;SDS011;19909;43.644;-79.438;2023-03-01T12:38:11;2.53;;;0.70;;
33579;SDS011;19909;43.644;-79.438;2023-03-01T12:41:03;0.57;;;0.57;;
33579;SDS011;19909;43.644;-79.438;2023-03-01T12:49:41;0.63;;;0.50;;
33579;SDS011;19909;43.644;-79.438;2023-03-01T12:52:43;0.88;;;0.60;;
33579;SDS011;19909;43.644;-79.438;2023-03-01T12:57:59;0.85;;;0.50;;
33579;SDS011;19909;43.644;-79.438;2023-03-01T13:00:36;0.50;;;0.43;;
33579;SDS011;19909;43.644;-79.438;2023-03-01T13:08:49;0.52;;;0.47;;
33579;SDS011;19909;43.644;-79.438;2023-03-01T13:11:33;0.68;;;0.40;;
33579;SDS011;19909;43.644;-79.438;2023-03-01T13:16:51;1.15;;;0.70;;
33579;SDS011;19909;43.644;-79.438;2023-03-01T13:19:19;1.35;;;0.85;;
33579;SDS011;19909;43.644;-79.438;2023-03-01T13:21:46;0.75;;;0.52;;
33579;SDS011;19909;43.644;-79.438;2023-03-01T13:34:51;0.75;;;0.55;;
33579;SDS011;19909;43.644;-79.438;2023-03-01T13:37:35;0.57;;;0.50;;
33579;SDS011;19909;43.644;-79.438;2023-03-01T13:42:49;1.13;;;0.60;;
33579;SDS011;19909;43.644;-79.438;2023-03-01T13:45:21;1.35;;;0.90;;
33579;SDS011;19909;43.644;-79.438;2023-03-01T13:47:53;1.23;;;0.70;;
33579;SDS011;19909;43.644;-79.438;2023-03-01T13:50:24;0.80;;;0.57;;
33579;SDS011;19909;43.644;-79.438;2023-03-01T13:58:16;0.77;;;0.45;;
33579;SDS011;19909;43.644;-79.438;2023-03-01T14:00:54;0.63;;;0.43;;
33579;SDS011;19909;43.644;-79.438;2023-03-01T14:03:22;0.75;;;0.60;;
33579;SDS011;19909;43.644;-79.438;2023-03-01T14:05:59;0.80;;;0.55;;
33579;SDS011;19909;43.644;-79.438;2023-03-01T14:08:26;0.60;;;0.45;;
33579;SDS011;19909;43.644;-79.438;2023-03-01T14:21:46;2.33;;;0.75;;
33579;SDS011;19909;43.644;-79.438;2023-03-01T14:24:31;0.50;;;0.40;;
33579;SDS011;19909;43.644;-79.438;2023-03-01T14:27:01;1.00;;;0.57;;
33579;SDS011;19909;43.644;-79.438;2023-03-01T14:29:32;1.02;;;0.57;;
33579;SDS011;19909;43.644;-79.438;2023-03-01T14:34:43;0.98;;;0.50;;
33579;SDS011;19909;43.644;-79.438;2023-03-01T14:37:11;0.60;;;0.40;;
33579;SDS011;19909;43.644;-79.438;2023-03-01T14:39:47;0.65;;;0.45;;
33579;SDS011;19909;43.644;-79.438;2023-03-01T14:42:14;0.40;;;0.30;;
33579;SDS011;19909;43.644;-79.438;2023-03-01T14:44:42;0.70;;;0.50;;
33579;SDS011;19909;43.644;-79.438;2023-03-01T14:47:12;1.35;;;0.70;;
33579;SDS011;19909;43.644;-79.438;2023-03-01T14:49:45;0.38;;;0.38;;
33579;SDS011;19909;43.644;-79.438;2023-03-01T14:52:20;0.45;;;0.40;;
33579;SDS011;19909;43.644;-79.438;2023-03-01T14:54:49;1.30;;;0.63;;
33579;SDS011;19909;43.644;-79.438;2023-03-01T14:57:21;0.57;;;0.38;;
33579;SDS011;19909;43.644;-79.438;2023-03-01T14:59:51;0.82;;;0.60;;
33579;SDS011;19909;43.644;-79.438;2023-03-01T15:02:22;0.88;;;0.50;;
33579;SDS011;19909;43.644;-79.438;2023-03-01T15:04:57;1.15;;;0.65;;
33579;SDS011;19909;43.644;-79.438;2023-03-01T15:07:27;0.85;;;0.50;;
33579;SDS011;19909;43.644;-79.438;2023-03-01T15:09:57;1.17;;;0.50;;
33579;SDS011;19909;43.644;-79.438;2023-03-01T15:14:54;1.33;;;0.65;;
33579;SDS011;19909;43.644;-79.438;2023-03-01T15:17:31;0.82;;;0.55;;
33579;SDS011;19909;43.644;-79.438;2023-03-01T15:20:06;0.50;;;0.40;;
33579;SDS011;19909;43.644;-79.438;2023-03-01T15:22:45;1.15;;;0.47;;
33579;SDS011;19909;43.644;-79.438;2023-03-01T15:25:15;0.60;;;0.50;;
33579;SDS011;19909;43.644;-79.438;2023-03-01T15:27:47;0.65;;;0.40;;
33579;SDS011;19909;43.644;-79.438;2023-03-01T15:30:25;0.55;;;0.40;;
33579;SDS011;19909;43.644;-79.438;2023-03-01T15:38:24;0.70;;;0.43;;
33579;SDS011;19909;43.644;-79.438;2023-03-01T15:40:53;0.57;;;0.35;;
33579;SDS011;19909;43.644;-79.438;2023-03-01T15:46:31;0.30;;;0.20;;
33579;SDS011;19909;43.644;-79.438;2023-03-01T15:49:02;0.80;;;0.40;;
33579;SDS011;19909;43.644;-79.438;2023-03-01T15:51:34;0.40;;;0.30;;
33579;SDS011;19909;43.644;-79.438;2023-03-01T15:54:08;1.67;;;0.47;;
33579;SDS011;19909;43.644;-79.438;2023-03-01T15:56:45;0.50;;;0.20;;
33579;SDS011;19909;43.644;-79.438;2023-03-01T15:59:11;0.52;;;0.38;;
33579;SDS011;19909;43.644;-79.438;2023-03-01T16:01:41;0.35;;;0.32;;
33579;SDS011;19909;43.644;-79.438;2023-03-01T16:04:11;0.60;;;0.40;;
33579;SDS011;19909;43.644;-79.438;2023-03-01T16:06:41;0.60;;;0.35;;
33579;SDS011;19909;43.644;-79.438;2023-03-01T16:09:07;0.38;;;0.28;;
33579;SDS011;19909;43.644;-79.438;2023-03-01T16:11:34;0.43;;;0.30;;
33579;SDS011;19909;43.644;-79.438;2023-03-01T16:14:02;0.40;;;0.30;;
33579;SDS011;19909;43.644;-79.438;2023-03-01T16:16:28;0.52;;;0.30;;
33579;SDS011;19909;43.644;-79.438;2023-03-01T16:18:54;0.95;;;0.40;;
33579;SDS011;19909;43.644;-79.438;2023-03-01T16:21:22;0.57;;;0.30;;
33579;SDS011;19909;43.644;-79.438;2023-03-01T16:23:50;0.30;;;0.20;;
33579;SDS011;19909;43.644;-79.438;2023-03-01T16:26:17;0.82;;;0.55;;
33579;SDS011;19909;43.644;-79.438;2023-03-01T16:28:44;1.67;;;0.40;;
33579;SDS011;19909;43.644;-79.438;2023-03-01T16:31:11;0.65;;;0.40;;
33579;SDS011;19909;43.644;-79.438;2023-03-01T16:33:41;0.40;;;0.30;;
33579;SDS011;19909;43.644;-79.438;2023-03-01T16:36:11;0.70;;;0.40;;
33579;SDS011;19909;43.644;-79.438;2023-03-01T16:38:37;0.40;;;0.30;;